Pagina principale
METAR-TAF:

METAR-TAF

Aeroporti :

Aeroporto di Libreville-Léon M'Ba

Libreville, Gabon

latitudine: 00-27N, longitudine: 009-25E, altezza: 12 m

Osservazione

Il bollettino è stato emesso 17 minuti fa, alle 15:30 UTC
Vento 2 kt da ovest, variando fra ovest/sud-ovest e nord-ovest
Temperature 26°C
Umidità 84%
Pressione 1014 hPa
Visibilità: 9000 m
Nubi sparse ad un'altezza di 1300 ft

METAR: FOOL 241530Z 28002KT 240V310 9000 SCT013 26/23 Q1014 NOSIG

Ora: 16:47 (15:47 UTC)

Previsione

Il bollettino è stato emesso 4 ore e 31 minuti fa, alle 11:16 UTC
Previsione valida dal 24 alle 12 UTC al 25 alle 18 UTC
Vento 8 kt da sud/sud-ovest
Visibilità: 8000 m
Nubi sparse ad un'altezza di 1100 ft
Nuvoloso ad un'altezza di 3300 ft
Probabilità 30%
dal 25 alle 05 UTC al 25 alle 07 UTC
Visibilità: 4000 m
foschia

TAF: FOOL 241116Z 2412/2518 20008KT 8000 SCT011 BKN033 PROB30 2505/2507 4000 BR

Osservazioni e previsioni meteorologiche di più di 4000 aeroporti (messaggi METAR e TAF).

Le stazioni disponibili sono rappresentate dai dischi gialli e rossi sulla carta.

Puntare il mouse per vedere il nome della stazione.

Clicca sopra per visualizzare le osservazioni e previsioni meteorologiche.

Per cambiare la mappa : fare clic sui pulsanti verdi con una croce nera per ingrandire, il pulsante verde con un trattino per diminuire, o sulla freccia verde per le mappe adiacenti.


METAR-TAF: